createdAt,value
2023-04-09T00:01:04.221Z,8.76
2023-04-09T00:03:32.184Z,8.79
2023-04-09T00:06:00.196Z,9.02
2023-04-09T00:08:29.615Z,9.06
2023-04-09T00:10:59.101Z,8.60
2023-04-09T00:13:38.697Z,8.70
2023-04-09T00:16:08.441Z,8.65
2023-04-09T00:18:37.642Z,8.61
2023-04-09T00:21:07.194Z,8.80
2023-04-09T00:23:36.774Z,8.87
2023-04-09T00:26:07.725Z,8.72
2023-04-09T00:28:36.048Z,8.51
2023-04-09T00:31:04.024Z,8.45
2023-04-09T00:33:31.933Z,8.63
2023-04-09T00:35:59.950Z,8.78
2023-04-09T00:38:28.058Z,8.85
2023-04-09T00:40:57.637Z,8.89
2023-04-09T00:43:25.498Z,8.95
2023-04-09T00:45:53.550Z,8.72
2023-04-09T00:48:23.790Z,8.65
2023-04-09T00:50:52.174Z,8.67
2023-04-09T00:53:21.017Z,8.68
2023-04-09T00:55:48.892Z,8.72
2023-04-09T00:58:20.675Z,8.77
2023-04-09T01:00:48.674Z,8.78
2023-04-09T01:03:17.184Z,8.66
2023-04-09T01:05:55.009Z,8.62
2023-04-09T01:08:38.850Z,8.68
2023-04-09T01:11:15.850Z,8.50
2023-04-09T01:13:53.782Z,8.59
2023-04-09T01:16:24.788Z,8.59
2023-04-09T01:18:59.220Z,8.36
2023-04-09T01:21:32.028Z,8.44
2023-04-09T01:24:08.714Z,8.36
2023-04-09T01:26:58.357Z,8.59
2023-04-09T01:29:36.777Z,8.69
2023-04-09T01:32:08.243Z,8.59
2023-04-09T01:34:38.623Z,8.49
2023-04-09T01:37:07.566Z,8.64
2023-04-09T01:39:38.006Z,8.47
2023-04-09T01:42:09.680Z,8.66
2023-04-09T01:44:40.412Z,8.46
2023-04-09T01:47:09.585Z,8.27
2023-04-09T01:49:38.541Z,7.92
2023-04-09T01:52:07.209Z,7.92
2023-04-09T01:54:35.051Z,8.28
2023-04-09T01:57:03.225Z,8.38
2023-04-09T01:59:31.451Z,8.56
2023-04-09T02:02:06.791Z,8.05
2023-04-09T02:04:36.788Z,7.82
2023-04-09T02:07:11.279Z,7.86
2023-04-09T02:09:41.481Z,7.97
2023-04-09T02:12:13.595Z,8.01
2023-04-09T02:14:42.224Z,7.93
2023-04-09T02:17:11.370Z,8.06
2023-04-09T02:19:40.640Z,8.20
2023-04-09T02:22:08.828Z,8.33
2023-04-09T02:24:37.457Z,8.23
2023-04-09T02:27:06.168Z,7.97
2023-04-09T02:29:34.665Z,8.05
2023-04-09T02:32:03.609Z,7.91
2023-04-09T02:34:32.831Z,7.94
2023-04-09T02:37:00.744Z,7.89
2023-04-09T02:39:28.542Z,7.97
2023-04-09T02:41:57.856Z,7.93
2023-04-09T02:44:27.970Z,8.08
2023-04-09T02:46:57.159Z,7.98
2023-04-09T02:49:25.079Z,8.01
2023-04-09T02:51:54.363Z,7.99
2023-04-09T02:54:22.402Z,8.05
2023-04-09T02:56:50.318Z,8.13
2023-04-09T02:59:18.396Z,8.12
2023-04-09T03:01:46.487Z,8.13
2023-04-09T03:04:14.724Z,7.80
2023-04-09T03:06:42.700Z,7.38
2023-04-09T03:09:11.985Z,7.29
2023-04-09T03:11:40.276Z,7.05
2023-04-09T03:14:08.074Z,6.92
2023-04-09T03:16:35.927Z,7.16
2023-04-09T03:19:03.842Z,7.24
2023-04-09T03:21:32.035Z,7.32
2023-04-09T03:24:00.201Z,7.12
2023-04-09T03:26:36.083Z,7.25
2023-04-09T03:29:07.064Z,7.06
2023-04-09T03:31:35.139Z,7.25
2023-04-09T03:34:03.088Z,7.50
2023-04-09T03:36:34.375Z,7.71
2023-04-09T03:39:10.389Z,7.63
2023-04-09T03:41:43.952Z,7.63
2023-04-09T03:44:15.758Z,7.67
2023-04-09T03:47:06.601Z,7.72
2023-04-09T03:49:36.560Z,7.75
2023-04-09T03:52:26.715Z,7.85
2023-04-09T03:55:04.470Z,7.94
2023-04-09T03:57:33.971Z,7.99
2023-04-09T04:00:02.431Z,8.04
2023-04-09T04:02:40.106Z,8.11
2023-04-09T04:05:12.162Z,7.90
2023-04-09T04:07:46.256Z,7.54
2023-04-09T04:10:19.471Z,7.74
2023-04-09T04:12:49.836Z,7.77
2023-04-09T04:15:24.743Z,7.74
2023-04-09T04:17:56.432Z,7.68
2023-04-09T04:20:37.048Z,7.77
2023-04-09T04:23:09.551Z,7.91
2023-04-09T04:25:43.082Z,7.64
2023-04-09T04:28:16.396Z,7.40
2023-04-09T04:30:44.331Z,6.96
2023-04-09T04:33:12.645Z,6.92
2023-04-09T04:35:48.907Z,7.39
2023-04-09T04:38:41.263Z,7.58
2023-04-09T04:41:16.153Z,7.45
2023-04-09T04:43:51.990Z,7.56
2023-04-09T04:46:23.359Z,7.73
2023-04-09T04:48:51.613Z,7.85
2023-04-09T04:51:20.261Z,7.89
2023-04-09T04:54:00.874Z,7.77
2023-04-09T04:56:29.273Z,7.90
2023-04-09T04:59:05.319Z,8.00
2023-04-09T05:01:45.464Z,8.09
2023-04-09T05:04:14.494Z,8.00
2023-04-09T05:06:42.402Z,8.04
2023-04-09T05:09:14.714Z,8.15
2023-04-09T05:11:54.961Z,8.14
2023-04-09T05:14:25.396Z,8.18
2023-04-09T05:16:53.510Z,8.23
2023-04-09T05:19:25.419Z,8.32
2023-04-09T05:21:59.272Z,8.32
2023-04-09T05:24:27.182Z,8.27
2023-04-09T05:26:54.991Z,8.37
2023-04-09T05:29:24.672Z,8.38
2023-04-09T05:31:52.576Z,8.30
2023-04-09T05:34:29.237Z,7.82
2023-04-09T05:36:58.110Z,7.87
2023-04-09T05:39:26.960Z,8.02
2023-04-09T05:41:56.260Z,7.93
2023-04-09T05:44:38.828Z,7.78
2023-04-09T05:47:14.492Z,7.81
2023-04-09T05:49:57.026Z,7.49
2023-04-09T05:52:25.067Z,7.46
2023-04-09T05:54:53.912Z,7.67
2023-04-09T05:57:30.253Z,7.98
2023-04-09T06:00:03.301Z,7.72
2023-04-09T06:02:44.762Z,7.79
2023-04-09T06:05:12.930Z,8.28
2023-04-09T06:07:40.776Z,8.56
2023-04-09T06:10:09.751Z,8.62
2023-04-09T06:12:37.773Z,8.39
2023-04-09T06:15:09.012Z,8.75
2023-04-09T06:17:37.126Z,8.83
2023-04-09T06:20:06.505Z,9.16
2023-04-09T06:22:35.448Z,9.50
2023-04-09T06:25:06.180Z,9.76
2023-04-09T06:27:34.547Z,9.96
2023-04-09T06:30:05.044Z,9.50
2023-04-09T06:32:46.980Z,9.61
2023-04-09T06:35:21.489Z,9.38
2023-04-09T06:37:58.723Z,9.35
2023-04-09T06:40:53.979Z,8.92
2023-04-09T06:43:34.892Z,9.72
2023-04-09T06:46:21.590Z,9.96
2023-04-09T06:48:50.889Z,10.25
2023-04-09T06:51:20.919Z,9.75
2023-04-09T06:53:49.841Z,9.64
2023-04-09T06:56:18.151Z,9.94
2023-04-09T06:58:48.418Z,10.14
2023-04-09T07:01:17.438Z,10.02
2023-04-09T07:03:45.798Z,10.67
2023-04-09T07:06:15.302Z,11.00
2023-04-09T07:08:44.332Z,11.18
2023-04-09T07:11:12.204Z,10.56
2023-04-09T07:13:40.078Z,11.02
2023-04-09T07:16:07.982Z,11.54
2023-04-09T07:18:35.822Z,11.44
2023-04-09T07:21:04.437Z,11.43
2023-04-09T07:23:37.211Z,11.90
2023-04-09T07:26:05.371Z,11.89
2023-04-09T07:28:33.343Z,12.19
2023-04-09T07:31:02.890Z,12.67
2023-04-09T07:33:31.189Z,12.18
2023-04-09T07:35:59.226Z,12.16
2023-04-09T07:38:30.444Z,13.12
2023-04-09T07:41:00.805Z,13.36
2023-04-09T07:43:28.982Z,12.79
2023-04-09T07:45:57.088Z,13.68
2023-04-09T07:48:25.256Z,13.73
2023-04-09T07:50:55.457Z,12.91
2023-04-09T07:53:23.307Z,13.62
2023-04-09T07:55:52.421Z,14.18
2023-04-09T07:58:21.569Z,13.58
2023-04-09T08:00:49.512Z,14.66
2023-04-09T08:03:17.686Z,14.82
2023-04-09T08:05:48.228Z,15.37
2023-04-09T08:08:16.068Z,15.52
2023-04-09T08:10:43.924Z,15.82
2023-04-09T08:13:12.124Z,16.17
2023-04-09T08:15:41.513Z,15.83
2023-04-09T08:18:09.490Z,15.34
2023-04-09T08:20:38.187Z,16.45
2023-04-09T08:23:06.164Z,16.29
2023-04-09T08:25:34.361Z,16.74
2023-04-09T08:28:02.343Z,16.66
2023-04-09T08:30:34.184Z,16.23
2023-04-09T08:33:03.680Z,16.90
2023-04-09T08:35:31.886Z,16.89
2023-04-09T08:38:00.189Z,16.23
2023-04-09T08:40:28.442Z,16.63
2023-04-09T08:42:57.796Z,16.77
2023-04-09T08:45:25.930Z,16.63
2023-04-09T08:47:54.001Z,17.39
2023-04-09T08:50:23.753Z,15.38
2023-04-09T08:52:52.048Z,16.38
2023-04-09T08:55:20.308Z,16.04
2023-04-09T08:57:48.329Z,16.69
2023-04-09T09:00:18.402Z,17.59
2023-04-09T09:03:03.448Z,16.28
2023-04-09T09:05:40.099Z,16.42
2023-04-09T09:08:09.055Z,17.16
2023-04-09T09:10:41.956Z,17.24
2023-04-09T09:13:21.308Z,17.78
2023-04-09T09:15:52.805Z,18.19
2023-04-09T09:18:20.941Z,18.22
2023-04-09T09:20:50.185Z,18.66
2023-04-09T09:23:18.013Z,17.88
2023-04-09T09:25:45.884Z,17.02
2023-04-09T09:28:15.063Z,16.51
2023-04-09T09:30:43.160Z,16.00
2023-04-09T09:33:12.227Z,15.87
2023-04-09T09:35:52.169Z,15.84
2023-04-09T09:38:20.050Z,15.45
2023-04-09T09:40:48.598Z,15.21
2023-04-09T09:43:16.522Z,14.81
2023-04-09T09:45:47.768Z,15.85
2023-04-09T09:48:16.327Z,16.36
2023-04-09T09:50:47.001Z,16.54
2023-04-09T09:53:23.698Z,16.17
2023-04-09T09:55:57.304Z,16.19
2023-04-09T09:58:29.157Z,16.31
2023-04-09T10:00:57.936Z,15.20
2023-04-09T10:03:28.205Z,16.57
2023-04-09T10:05:57.544Z,15.95
2023-04-09T10:08:28.014Z,15.52
2023-04-09T10:10:56.312Z,14.48
2023-04-09T10:13:32.496Z,15.17
2023-04-09T10:16:01.718Z,13.86
2023-04-09T10:18:33.540Z,15.54
2023-04-09T10:21:07.922Z,16.04
2023-04-09T10:23:40.318Z,15.43
2023-04-09T10:26:11.352Z,15.46
2023-04-09T10:28:40.189Z,15.74
2023-04-09T10:31:10.563Z,16.10
2023-04-09T10:33:40.538Z,14.85
2023-04-09T10:36:13.525Z,14.72
2023-04-09T10:38:48.292Z,15.16
2023-04-09T10:41:24.111Z,15.33
2023-04-09T10:43:54.842Z,14.36
2023-04-09T10:46:30.483Z,16.07
2023-04-09T10:49:11.797Z,15.99
2023-04-09T10:51:40.158Z,15.60
2023-04-09T10:54:46.117Z,16.10
2023-04-09T10:57:19.869Z,16.11
2023-04-09T10:59:49.724Z,16.62
2023-04-09T11:02:57.432Z,16.16
2023-04-09T11:05:44.312Z,16.29
2023-04-09T11:08:13.954Z,16.91
2023-04-09T11:10:49.801Z,17.00
2023-04-09T11:13:20.098Z,17.17
2023-04-09T11:15:48.204Z,16.71
2023-04-09T11:18:17.138Z,16.59
2023-04-09T11:20:45.036Z,16.39
2023-04-09T11:23:14.776Z,16.53
2023-04-09T11:25:42.779Z,17.43
2023-04-09T11:28:12.536Z,17.12
2023-04-09T11:30:41.465Z,16.56
2023-04-09T11:33:09.649Z,17.36
2023-04-09T11:35:37.967Z,16.58
2023-04-09T11:38:10.092Z,16.48
2023-04-09T11:40:43.532Z,16.45
2023-04-09T11:43:12.849Z,16.54
2023-04-09T11:45:40.723Z,16.44
2023-04-09T11:48:08.995Z,16.17
2023-04-09T11:50:37.748Z,16.67
2023-04-09T11:53:17.444Z,15.77
2023-04-09T11:55:51.010Z,16.66
2023-04-09T11:58:23.706Z,16.37
2023-04-09T12:00:54.277Z,14.95
2023-04-09T12:03:28.777Z,14.79
2023-04-09T12:05:56.587Z,14.51
2023-04-09T12:08:24.961Z,15.51
2023-04-09T12:10:55.940Z,15.97
2023-04-09T12:13:33.477Z,15.64
2023-04-09T12:16:02.208Z,15.95
2023-04-09T12:18:29.875Z,16.29
2023-04-09T12:20:57.599Z,16.08
2023-04-09T12:23:25.297Z,16.30
2023-04-09T12:25:55.400Z,17.39
2023-04-09T12:28:23.948Z,17.43
2023-04-09T12:30:59.900Z,16.69
2023-04-09T12:33:34.298Z,17.25
2023-04-09T12:36:19.629Z,16.38
2023-04-09T12:38:54.222Z,16.69
2023-04-09T12:41:48.480Z,16.33
2023-04-09T12:44:33.801Z,17.46
2023-04-09T12:47:11.226Z,17.91
2023-04-09T12:49:50.013Z,17.58
2023-04-09T12:52:26.490Z,18.65
2023-04-09T12:55:11.534Z,17.86
2023-04-09T12:57:52.221Z,18.07
2023-04-09T13:00:44.768Z,18.03
2023-04-09T13:03:19.357Z,18.44
2023-04-09T13:05:53.824Z,18.18
2023-04-09T13:08:22.431Z,16.91
2023-04-09T13:10:52.527Z,17.47
2023-04-09T13:13:21.438Z,17.59
2023-04-09T13:15:49.355Z,17.51
2023-04-09T13:18:18.820Z,18.26
2023-04-09T13:20:46.522Z,17.12
2023-04-09T13:23:14.213Z,18.44
2023-04-09T13:25:43.301Z,17.84
2023-04-09T13:28:11.500Z,17.03
2023-04-09T13:30:39.170Z,17.88
2023-04-09T13:33:07.058Z,17.10
2023-04-09T13:35:36.265Z,16.55
2023-04-09T13:38:04.193Z,16.67
2023-04-09T13:40:31.903Z,16.50
2023-04-09T13:42:59.650Z,17.26
2023-04-09T13:45:27.217Z,17.70
2023-04-09T13:47:55.119Z,16.61
2023-04-09T13:50:22.872Z,16.50
2023-04-09T13:52:51.939Z,16.73
2023-04-09T13:55:19.864Z,16.95
2023-04-09T13:57:47.499Z,16.80
2023-04-09T14:00:15.550Z,16.89
2023-04-09T14:02:43.891Z,16.16
2023-04-09T14:05:11.903Z,15.89
2023-04-09T14:07:39.861Z,16.38
2023-04-09T14:10:09.971Z,16.39
2023-04-09T14:12:37.581Z,15.75
2023-04-09T14:15:08.715Z,16.65
2023-04-09T14:17:36.444Z,16.72
2023-04-09T14:20:04.618Z,16.19
2023-04-09T14:22:32.332Z,15.95
2023-04-09T14:25:00.371Z,16.48
2023-04-09T14:27:29.566Z,16.11
2023-04-09T14:29:57.265Z,16.44
2023-04-09T14:32:25.641Z,16.55
2023-04-09T14:34:53.917Z,16.60
2023-04-09T14:37:21.626Z,16.66
2023-04-09T14:39:50.284Z,16.80
2023-04-09T14:42:19.249Z,16.50
2023-04-09T14:44:49.123Z,15.94
2023-04-09T14:47:17.708Z,16.25
2023-04-09T14:49:45.521Z,16.42
2023-04-09T14:52:13.116Z,16.57
2023-04-09T14:54:41.731Z,16.28
2023-04-09T14:57:09.572Z,15.96
2023-04-09T14:59:37.358Z,16.03
2023-04-09T15:02:06.734Z,16.08
2023-04-09T15:04:34.588Z,16.08
2023-04-09T15:07:02.609Z,16.35
2023-04-09T15:09:30.286Z,16.48
2023-04-09T15:11:58.007Z,16.59
2023-04-09T15:14:26.376Z,16.36
2023-04-09T15:16:55.916Z,16.40
2023-04-09T15:19:25.002Z,16.62
2023-04-09T15:21:52.714Z,15.84
2023-04-09T15:24:20.459Z,16.12
2023-04-09T15:26:49.793Z,16.07
2023-04-09T15:29:17.816Z,15.85
2023-04-09T15:31:55.800Z,16.01
2023-04-09T15:34:26.863Z,15.77
2023-04-09T15:36:55.740Z,15.92
2023-04-09T15:39:25.241Z,15.72
2023-04-09T15:41:53.548Z,15.52
2023-04-09T15:44:22.383Z,15.91
2023-04-09T15:46:51.448Z,15.78
2023-04-09T15:49:38.812Z,15.23
2023-04-09T15:52:14.138Z,15.40
2023-04-09T15:54:42.035Z,15.39
2023-04-09T15:57:10.959Z,15.51
2023-04-09T15:59:39.864Z,15.37
2023-04-09T16:02:08.903Z,15.34
2023-04-09T16:04:37.008Z,15.63
2023-04-09T16:07:05.297Z,15.87
2023-04-09T16:09:34.557Z,15.81
2023-04-09T16:12:03.321Z,15.14
2023-04-09T16:14:38.724Z,14.94
2023-04-09T16:17:12.370Z,14.93
2023-04-09T16:19:41.088Z,14.99
2023-04-09T16:22:09.637Z,14.74
2023-04-09T16:24:40.063Z,14.95
2023-04-09T16:27:07.958Z,14.83
2023-04-09T16:29:35.692Z,15.08
2023-04-09T16:32:04.013Z,14.83
2023-04-09T16:34:32.816Z,14.93
2023-04-09T16:37:01.430Z,14.70
2023-04-09T16:39:29.614Z,14.58
2023-04-09T16:41:59.607Z,14.59
2023-04-09T16:44:27.929Z,14.25
2023-04-09T16:46:56.578Z,14.51
2023-04-09T16:49:25.138Z,14.38
2023-04-09T16:51:54.336Z,14.40
2023-04-09T16:54:22.824Z,14.29
2023-04-09T16:56:51.699Z,14.39
2023-04-09T16:59:22.561Z,14.18
2023-04-09T17:01:52.245Z,14.27
2023-04-09T17:04:21.122Z,14.35
2023-04-09T17:06:58.182Z,14.34
2023-04-09T17:09:26.427Z,13.94
2023-04-09T17:11:54.727Z,13.75
2023-04-09T17:14:25.273Z,13.85
2023-04-09T17:16:56.474Z,13.94
2023-04-09T17:19:28.270Z,14.43
2023-04-09T17:21:57.272Z,14.44
2023-04-09T17:24:26.165Z,14.17
2023-04-09T17:26:54.472Z,14.18
2023-04-09T17:29:24.345Z,14.14
2023-04-09T17:31:53.269Z,14.04
2023-04-09T17:34:24.436Z,13.96
2023-04-09T17:36:56.883Z,13.79
2023-04-09T17:39:25.747Z,13.87
2023-04-09T17:41:53.620Z,13.54
2023-04-09T17:44:25.187Z,13.81
2023-04-09T17:46:54.087Z,13.68
2023-04-09T17:49:23.280Z,13.55
2023-04-09T17:51:51.542Z,13.67
2023-04-09T17:54:19.292Z,13.22
2023-04-09T17:56:48.377Z,13.15
2023-04-09T17:59:16.044Z,13.40
2023-04-09T18:01:45.098Z,13.16
2023-04-09T18:04:14.059Z,13.12
2023-04-09T18:06:41.900Z,13.09
2023-04-09T18:09:09.922Z,13.18
2023-04-09T18:11:37.650Z,13.31
2023-04-09T18:14:13.572Z,13.26
2023-04-09T18:16:48.388Z,12.87
2023-04-09T18:19:19.642Z,12.87
2023-04-09T18:21:50.749Z,12.68
2023-04-09T18:24:18.598Z,12.64
2023-04-09T18:26:46.559Z,12.75
2023-04-09T18:29:14.273Z,12.36
2023-04-09T18:31:42.212Z,12.65
2023-04-09T18:34:11.870Z,12.42
2023-04-09T18:36:41.752Z,12.33
2023-04-09T18:39:11.944Z,12.41
2023-04-09T18:41:39.948Z,12.46
2023-04-09T18:44:08.125Z,12.77
2023-04-09T18:46:38.720Z,12.58
2023-04-09T18:49:06.473Z,12.75
2023-04-09T18:51:35.645Z,12.54
2023-04-09T18:54:03.548Z,12.72
2023-04-09T18:56:31.212Z,12.55
2023-04-09T18:58:58.869Z,12.58
2023-04-09T19:01:26.736Z,12.45
2023-04-09T19:03:56.851Z,12.32
2023-04-09T19:06:25.726Z,12.53
2023-04-09T19:08:58.222Z,12.53
2023-04-09T19:11:26.615Z,12.40
2023-04-09T19:13:54.325Z,12.50
2023-04-09T19:16:22.212Z,12.49
2023-04-09T19:18:50.232Z,12.49
2023-04-09T19:21:18.658Z,12.30
2023-04-09T19:23:46.948Z,11.57
2023-04-09T19:26:19.087Z,11.05
2023-04-09T19:28:46.910Z,11.31
2023-04-09T19:31:16.129Z,11.32
2023-04-09T19:33:43.801Z,11.33
2023-04-09T19:36:12.924Z,11.48
2023-04-09T19:38:40.719Z,11.50
2023-04-09T19:41:08.430Z,11.31
2023-04-09T19:43:39.340Z,11.50
2023-04-09T19:46:08.483Z,11.41
2023-04-09T19:48:36.430Z,11.33
2023-04-09T19:51:04.206Z,11.27
2023-04-09T19:53:32.875Z,11.16
2023-04-09T19:56:00.666Z,11.39
2023-04-09T19:58:28.494Z,11.51
2023-04-09T20:00:57.583Z,11.19
2023-04-09T20:03:25.469Z,11.11
2023-04-09T20:05:53.669Z,10.89
2023-04-09T20:08:21.264Z,10.94
2023-04-09T20:10:52.728Z,11.01
2023-04-09T20:13:22.485Z,10.92
2023-04-09T20:15:51.728Z,10.93
2023-04-09T20:18:23.096Z,11.03
2023-04-09T20:20:51.278Z,10.84
2023-04-09T20:23:18.980Z,10.94
2023-04-09T20:25:46.627Z,10.65
2023-04-09T20:28:14.555Z,10.36
2023-04-09T20:30:42.886Z,9.83
2023-04-09T20:33:10.888Z,9.88
2023-04-09T20:35:40.206Z,9.94
2023-04-09T20:38:07.988Z,9.92
2023-04-09T20:40:36.820Z,10.26
2023-04-09T20:43:04.424Z,10.09
2023-04-09T20:45:32.216Z,10.03
2023-04-09T20:48:00.026Z,10.24
2023-04-09T20:50:28.839Z,10.31
2023-04-09T20:53:02.628Z,10.33
2023-04-09T20:55:32.628Z,10.24
2023-04-09T20:58:03.856Z,10.28
2023-04-09T21:00:39.642Z,10.30
2023-04-09T21:03:08.627Z,10.18
2023-04-09T21:05:36.810Z,9.88
2023-04-09T21:08:05.938Z,9.16
2023-04-09T21:10:33.770Z,9.29
2023-04-09T21:13:01.650Z,9.68
2023-04-09T21:15:29.344Z,9.78
2023-04-09T21:17:57.031Z,9.80
2023-04-09T21:20:24.857Z,9.60
2023-04-09T21:22:54.352Z,9.71
2023-04-09T21:25:23.480Z,9.80
2023-04-09T21:27:51.726Z,9.79
2023-04-09T21:30:19.436Z,9.50
2023-04-09T21:32:47.196Z,9.45
2023-04-09T21:35:14.891Z,8.97
2023-04-09T21:37:42.471Z,9.18
2023-04-09T21:40:10.572Z,9.00
2023-04-09T21:42:39.540Z,8.83
2023-04-09T21:45:07.739Z,8.85
2023-04-09T21:47:35.530Z,8.79
2023-04-09T21:50:04.234Z,8.68
2023-04-09T21:52:32.346Z,8.59
2023-04-09T21:55:00.056Z,8.33
2023-04-09T21:57:27.774Z,8.50
2023-04-09T21:59:57.037Z,8.59
2023-04-09T22:02:24.800Z,8.61
2023-04-09T22:04:55.190Z,8.23
2023-04-09T22:07:22.894Z,8.10
2023-04-09T22:09:54.754Z,8.10
2023-04-09T22:12:22.678Z,8.19
2023-04-09T22:14:50.427Z,8.40
2023-04-09T22:17:19.986Z,8.42
2023-04-09T22:19:47.936Z,8.36
2023-04-09T22:22:15.803Z,7.96
2023-04-09T22:24:44.872Z,8.00
2023-04-09T22:27:13.013Z,8.15
2023-04-09T22:29:40.970Z,8.24
2023-04-09T22:32:12.102Z,8.09
2023-04-09T22:34:49.055Z,8.45
2023-04-09T22:37:17.386Z,8.51
2023-04-09T22:39:47.450Z,8.56
2023-04-09T22:42:15.137Z,8.49
2023-04-09T22:44:42.839Z,8.08
2023-04-09T22:47:10.851Z,7.84
2023-04-09T22:49:38.696Z,8.15
2023-04-09T22:52:08.197Z,7.82
2023-04-09T22:54:38.037Z,8.07
2023-04-09T22:57:05.939Z,7.87
2023-04-09T22:59:39.877Z,7.40
2023-04-09T23:02:08.524Z,6.98
2023-04-09T23:04:36.936Z,7.21
2023-04-09T23:07:04.864Z,6.64
2023-04-09T23:09:35.212Z,6.99
2023-04-09T23:12:03.386Z,6.68
2023-04-09T23:14:33.285Z,6.82
2023-04-09T23:17:00.952Z,7.04
2023-04-09T23:19:28.975Z,6.95
2023-04-09T23:21:56.777Z,6.84
2023-04-09T23:24:24.571Z,7.09
2023-04-09T23:26:53.650Z,7.08
2023-04-09T23:29:21.538Z,7.02
2023-04-09T23:31:49.233Z,6.92
2023-04-09T23:34:16.908Z,6.91
2023-04-09T23:36:44.623Z,6.94
2023-04-09T23:39:12.344Z,6.88
2023-04-09T23:41:40.038Z,6.97
2023-04-09T23:44:09.089Z,7.07
2023-04-09T23:46:38.906Z,7.26
2023-04-09T23:49:06.690Z,7.42
2023-04-09T23:51:34.372Z,7.44
2023-04-09T23:54:03.005Z,7.48
2023-04-09T23:56:32.868Z,7.18
2023-04-09T23:59:06.144Z,6.83
